sensor_id;sensor_type;location;lat;lon;timestamp;P1;durP1;ratioP1;P2;durP2;ratioP2
29776;SDS011;16677;52.224;7.484;2023-04-15T08:57:27;13.60;;;11.20;;
29776;SDS011;16677;52.224;7.484;2023-04-15T08:59:54;13.60;;;12.30;;
29776;SDS011;16677;52.224;7.484;2023-04-15T09:02:23;11.57;;;10.37;;
29776;SDS011;16677;52.224;7.484;2023-04-15T09:04:52;12.10;;;10.63;;
29776;SDS011;16677;52.224;7.484;2023-04-15T09:07:20;11.90;;;10.37;;
29776;SDS011;16677;52.224;7.484;2023-04-15T09:09:47;11.40;;;10.20;;
29776;SDS011;16677;52.224;7.484;2023-04-15T09:12:14;11.53;;;10.33;;
29776;SDS011;16677;52.224;7.484;2023-04-15T09:14:44;10.43;;;9.30;;
29776;SDS011;16677;52.224;7.484;2023-04-15T09:17:13;10.53;;;9.43;;
29776;SDS011;16677;52.224;7.484;2023-04-15T09:19:46;12.50;;;10.43;;
29776;SDS011;16677;52.224;7.484;2023-04-15T09:22:13;12.63;;;10.30;;
29776;SDS011;16677;52.224;7.484;2023-04-15T09:24:41;11.40;;;10.20;;
29776;SDS011;16677;52.224;7.484;2023-04-15T09:27:08;11.43;;;10.20;;
29776;SDS011;16677;52.224;7.484;2023-04-15T09:29:36;13.53;;;9.80;;
29776;SDS011;16677;52.224;7.484;2023-04-15T09:32:15;12.23;;;10.23;;
29776;SDS011;16677;52.224;7.484;2023-04-15T09:34:42;10.80;;;9.60;;
29776;SDS011;16677;52.224;7.484;2023-04-15T09:37:10;10.63;;;9.53;;
29776;SDS011;16677;52.224;7.484;2023-04-15T09:39:54;9.83;;;8.83;;
29776;SDS011;16677;52.224;7.484;2023-04-15T10:29:25;8.33;;;7.40;;
29776;SDS011;16677;52.224;7.484;2023-04-15T10:31:56;8.20;;;7.40;;
29776;SDS011;16677;52.224;7.484;2023-04-15T10:34:25;10.10;;;6.50;;
29776;SDS011;16677;52.224;7.484;2023-04-15T10:37:00;7.77;;;6.97;;
29776;SDS011;16677;52.224;7.484;2023-04-15T10:42:08;7.07;;;6.30;;
29776;SDS011;16677;52.224;7.484;2023-04-15T10:44:58;7.43;;;6.73;;
29776;SDS011;16677;52.224;7.484;2023-04-15T10:47:24;7.60;;;6.53;;
29776;SDS011;16677;52.224;7.484;2023-04-15T10:50:00;7.47;;;6.77;;
29776;SDS011;16677;52.224;7.484;2023-04-15T10:52:28;5.93;;;5.43;;
29776;SDS011;16677;52.224;7.484;2023-04-15T10:57:52;6.67;;;6.07;;
29776;SDS011;16677;52.224;7.484;2023-04-15T11:00:24;6.37;;;5.77;;
29776;SDS011;16677;52.224;7.484;2023-04-15T11:08:11;4.67;;;4.17;;
29776;SDS011;16677;52.224;7.484;2023-04-15T11:18:16;5.07;;;4.63;;
29776;SDS011;16677;52.224;7.484;2023-04-15T11:23:28;5.33;;;4.30;;
29776;SDS011;16677;52.224;7.484;2023-04-15T11:25:59;4.20;;;3.80;;
29776;SDS011;16677;52.224;7.484;2023-04-15T11:28:31;4.97;;;4.47;;
29776;SDS011;16677;52.224;7.484;2023-04-15T11:31:04;4.27;;;3.87;;
29776;SDS011;16677;52.224;7.484;2023-04-15T11:33:44;7.20;;;4.47;;
29776;SDS011;16677;52.224;7.484;2023-04-15T11:36:24;4.90;;;4.40;;
29776;SDS011;16677;52.224;7.484;2023-04-15T11:38:53;5.23;;;4.73;;
29776;SDS011;16677;52.224;7.484;2023-04-15T11:41:21;6.80;;;5.20;;
29776;SDS011;16677;52.224;7.484;2023-04-15T11:43:49;8.50;;;5.10;;
29776;SDS011;16677;52.224;7.484;2023-04-15T11:46:17;5.53;;;4.97;;
29776;SDS011;16677;52.224;7.484;2023-04-15T11:48:45;4.43;;;4.03;;
29776;SDS011;16677;52.224;7.484;2023-04-15T11:51:13;5.23;;;4.73;;
29776;SDS011;16677;52.224;7.484;2023-04-15T11:53:47;4.47;;;4.07;;
29776;SDS011;16677;52.224;7.484;2023-04-15T11:56:22;5.13;;;4.10;;
29776;SDS011;16677;52.224;7.484;2023-04-15T11:58:52;5.23;;;4.20;;
29776;SDS011;16677;52.224;7.484;2023-04-15T12:04:01;5.50;;;5.00;;
29776;SDS011;16677;52.224;7.484;2023-04-15T12:06:37;4.97;;;4.20;;
29776;SDS011;16677;52.224;7.484;2023-04-15T12:09:14;6.20;;;4.20;;
29776;SDS011;16677;52.224;7.484;2023-04-15T12:11:43;4.90;;;4.40;;
29776;SDS011;16677;52.224;7.484;2023-04-15T12:16:44;4.57;;;3.77;;
29776;SDS011;16677;52.224;7.484;2023-04-15T12:19:21;6.17;;;4.07;;
29776;SDS011;16677;52.224;7.484;2023-04-15T12:21:59;4.70;;;4.30;;
29776;SDS011;16677;52.224;7.484;2023-04-15T12:24:31;4.80;;;4.30;;
29776;SDS011;16677;52.224;7.484;2023-04-15T12:27:01;4.33;;;3.93;;
29776;SDS011;16677;52.224;7.484;2023-04-15T12:29:35;4.80;;;4.13;;
29776;SDS011;16677;52.224;7.484;2023-04-15T12:32:05;4.40;;;4.00;;
29776;SDS011;16677;52.224;7.484;2023-04-15T12:34:40;4.40;;;4.00;;
29776;SDS011;16677;52.224;7.484;2023-04-15T12:37:19;4.70;;;4.20;;
29776;SDS011;16677;52.224;7.484;2023-04-15T12:39:47;4.60;;;4.10;;
29776;SDS011;16677;52.224;7.484;2023-04-15T12:42:16;4.03;;;3.73;;
29776;SDS011;16677;52.224;7.484;2023-04-15T12:44:44;4.73;;;4.23;;
29776;SDS011;16677;52.224;7.484;2023-04-15T12:47:11;5.00;;;4.03;;
29776;SDS011;16677;52.224;7.484;2023-04-15T12:49:39;4.63;;;4.23;;
29776;SDS011;16677;52.224;7.484;2023-04-15T12:52:06;4.40;;;3.97;;
29776;SDS011;16677;52.224;7.484;2023-04-15T12:54:34;4.40;;;4.00;;
29776;SDS011;16677;52.224;7.484;2023-04-15T12:57:01;4.90;;;4.40;;
29776;SDS011;16677;52.224;7.484;2023-04-15T12:59:32;4.23;;;3.83;;
29776;SDS011;16677;52.224;7.484;2023-04-15T13:02:00;4.40;;;4.00;;
29776;SDS011;16677;52.224;7.484;2023-04-15T13:04:28;4.10;;;3.70;;
29776;SDS011;16677;52.224;7.484;2023-04-15T13:06:56;5.13;;;3.97;;
29776;SDS011;16677;52.224;7.484;2023-04-15T13:09:24;5.57;;;3.93;;
29776;SDS011;16677;52.224;7.484;2023-04-15T13:11:51;4.10;;;3.70;;
29776;SDS011;16677;52.224;7.484;2023-04-15T13:14:19;4.20;;;3.80;;
29776;SDS011;16677;52.224;7.484;2023-04-15T13:16:46;4.60;;;3.97;;
29776;SDS011;16677;52.224;7.484;2023-04-15T13:19:13;3.97;;;3.63;;
29776;SDS011;16677;52.224;7.484;2023-04-15T13:21:41;3.90;;;3.60;;
29776;SDS011;16677;52.224;7.484;2023-04-15T13:24:08;4.33;;;3.90;;
29776;SDS011;16677;52.224;7.484;2023-04-15T13:26:35;4.47;;;3.37;;
29776;SDS011;16677;52.224;7.484;2023-04-15T13:29:03;3.70;;;3.40;;
29776;SDS011;16677;52.224;7.484;2023-04-15T13:31:30;3.50;;;3.20;;
29776;SDS011;16677;52.224;7.484;2023-04-15T13:33:57;3.80;;;3.33;;
29776;SDS011;16677;52.224;7.484;2023-04-15T13:36:24;4.40;;;4.00;;
29776;SDS011;16677;52.224;7.484;2023-04-15T13:38:52;3.77;;;3.47;;
29776;SDS011;16677;52.224;7.484;2023-04-15T13:41:19;5.40;;;3.60;;
29776;SDS011;16677;52.224;7.484;2023-04-15T13:43:47;5.53;;;3.40;;
29776;SDS011;16677;52.224;7.484;2023-04-15T13:46:14;3.13;;;2.93;;
29776;SDS011;16677;52.224;7.484;2023-04-15T13:48:41;3.50;;;3.20;;
29776;SDS011;16677;52.224;7.484;2023-04-15T13:51:08;4.10;;;3.50;;
29776;SDS011;16677;52.224;7.484;2023-04-15T13:53:35;4.20;;;3.70;;
29776;SDS011;16677;52.224;7.484;2023-04-15T13:56:07;6.00;;;3.70;;
29776;SDS011;16677;52.224;7.484;2023-04-15T13:58:36;3.97;;;3.30;;
29776;SDS011;16677;52.224;7.484;2023-04-15T14:01:03;3.27;;;2.97;;
29776;SDS011;16677;52.224;7.484;2023-04-15T14:03:35;3.93;;;3.33;;
29776;SDS011;16677;52.224;7.484;2023-04-15T14:06:04;4.30;;;3.67;;
29776;SDS011;16677;52.224;7.484;2023-04-15T14:08:32;4.77;;;3.73;;
29776;SDS011;16677;52.224;7.484;2023-04-15T14:10:59;7.10;;;3.83;;
29776;SDS011;16677;52.224;7.484;2023-04-15T14:13:26;4.70;;;4.27;;
29776;SDS011;16677;52.224;7.484;2023-04-15T14:15:53;5.20;;;4.27;;
29776;SDS011;16677;52.224;7.484;2023-04-15T14:18:22;3.87;;;3.50;;
29776;SDS011;16677;52.224;7.484;2023-04-15T14:20:49;3.60;;;3.30;;
29776;SDS011;16677;52.224;7.484;2023-04-15T14:23:16;8.77;;;3.63;;
29776;SDS011;16677;52.224;7.484;2023-04-15T14:25:43;4.97;;;4.57;;
29776;SDS011;16677;52.224;7.484;2023-04-15T14:28:13;5.17;;;4.53;;
29776;SDS011;16677;52.224;7.484;2023-04-15T14:30:41;5.63;;;4.20;;
29776;SDS011;16677;52.224;7.484;2023-04-15T14:33:08;5.70;;;4.23;;
29776;SDS011;16677;52.224;7.484;2023-04-15T14:35:35;5.97;;;4.60;;
29776;SDS011;16677;52.224;7.484;2023-04-15T14:38:02;4.37;;;3.37;;
29776;SDS011;16677;52.224;7.484;2023-04-15T14:40:32;4.23;;;3.83;;
29776;SDS011;16677;52.224;7.484;2023-04-15T14:42:59;4.97;;;3.93;;
29776;SDS011;16677;52.224;7.484;2023-04-15T14:45:26;5.93;;;4.50;;
29776;SDS011;16677;52.224;7.484;2023-04-15T14:47:53;6.03;;;4.50;;
29776;SDS011;16677;52.224;7.484;2023-04-15T14:50:21;5.73;;;4.20;;
29776;SDS011;16677;52.224;7.484;2023-04-15T14:52:48;4.57;;;4.17;;
29776;SDS011;16677;52.224;7.484;2023-04-15T14:55:15;4.60;;;4.20;;
29776;SDS011;16677;52.224;7.484;2023-04-15T14:57:42;7.43;;;5.07;;
29776;SDS011;16677;52.224;7.484;2023-04-15T15:00:10;5.97;;;4.90;;
29776;SDS011;16677;52.224;7.484;2023-04-15T15:02:41;4.57;;;4.17;;
29776;SDS011;16677;52.224;7.484;2023-04-15T15:05:09;5.73;;;3.93;;
29776;SDS011;16677;52.224;7.484;2023-04-15T15:07:37;7.70;;;5.10;;
29776;SDS011;16677;52.224;7.484;2023-04-15T15:10:06;7.90;;;4.77;;
29776;SDS011;16677;52.224;7.484;2023-04-15T15:12:34;6.77;;;5.27;;
29776;SDS011;16677;52.224;7.484;2023-04-15T15:15:02;7.67;;;4.60;;
29776;SDS011;16677;52.224;7.484;2023-04-15T15:17:44;7.53;;;5.20;;
29776;SDS011;16677;52.224;7.484;2023-04-15T15:20:12;10.07;;;4.87;;
29776;SDS011;16677;52.224;7.484;2023-04-15T15:22:39;9.57;;;4.90;;
29776;SDS011;16677;52.224;7.484;2023-04-15T15:25:06;6.53;;;5.23;;
29776;SDS011;16677;52.224;7.484;2023-04-15T15:27:33;9.40;;;6.30;;
29776;SDS011;16677;52.224;7.484;2023-04-15T15:30:03;9.93;;;5.90;;
29776;SDS011;16677;52.224;7.484;2023-04-15T15:32:32;10.47;;;6.67;;
29776;SDS011;16677;52.224;7.484;2023-04-15T15:34:59;11.00;;;5.33;;
29776;SDS011;16677;52.224;7.484;2023-04-15T15:37:26;9.47;;;5.77;;
29776;SDS011;16677;52.224;7.484;2023-04-15T15:39:56;9.70;;;5.60;;
29776;SDS011;16677;52.224;7.484;2023-04-15T15:42:23;10.27;;;6.17;;
29776;SDS011;16677;52.224;7.484;2023-04-15T15:44:50;10.13;;;6.03;;
29776;SDS011;16677;52.224;7.484;2023-04-15T15:47:20;7.00;;;5.70;;
29776;SDS011;16677;52.224;7.484;2023-04-15T15:49:48;8.30;;;6.47;;
29776;SDS011;16677;52.224;7.484;2023-04-15T15:52:15;10.33;;;6.80;;
29776;SDS011;16677;52.224;7.484;2023-04-15T15:54:42;8.90;;;6.13;;
29776;SDS011;16677;52.224;7.484;2023-04-15T15:57:09;10.57;;;7.00;;
29776;SDS011;16677;52.224;7.484;2023-04-15T15:59:36;10.33;;;6.17;;
29776;SDS011;16677;52.224;7.484;2023-04-15T16:02:07;10.03;;;6.80;;
29776;SDS011;16677;52.224;7.484;2023-04-15T16:04:39;9.83;;;7.30;;
29776;SDS011;16677;52.224;7.484;2023-04-15T16:07:09;11.10;;;7.07;;
29776;SDS011;16677;52.224;7.484;2023-04-15T16:09:40;10.83;;;6.67;;
29776;SDS011;16677;52.224;7.484;2023-04-15T16:12:08;11.37;;;6.43;;
29776;SDS011;16677;52.224;7.484;2023-04-15T16:14:35;9.10;;;6.43;;
29776;SDS011;16677;52.224;7.484;2023-04-15T16:17:05;11.33;;;6.47;;
29776;SDS011;16677;52.224;7.484;2023-04-15T16:19:31;11.90;;;6.70;;
29776;SDS011;16677;52.224;7.484;2023-04-15T16:21:59;10.23;;;6.87;;
29776;SDS011;16677;52.224;7.484;2023-04-15T16:24:27;8.77;;;7.40;;
29776;SDS011;16677;52.224;7.484;2023-04-15T16:26:55;8.13;;;6.53;;
29776;SDS011;16677;52.224;7.484;2023-04-15T16:29:24;10.67;;;7.40;;
29776;SDS011;16677;52.224;7.484;2023-04-15T16:31:51;9.97;;;7.13;;
29776;SDS011;16677;52.224;7.484;2023-04-15T16:34:21;9.87;;;7.63;;
29776;SDS011;16677;52.224;7.484;2023-04-15T16:36:48;10.40;;;7.30;;
29776;SDS011;16677;52.224;7.484;2023-04-15T16:39:15;12.37;;;7.80;;
29776;SDS011;16677;52.224;7.484;2023-04-15T16:41:42;10.50;;;7.40;;
29776;SDS011;16677;52.224;7.484;2023-04-15T16:44:09;12.13;;;7.97;;
29776;SDS011;16677;52.224;7.484;2023-04-15T16:46:36;10.80;;;8.00;;
29776;SDS011;16677;52.224;7.484;2023-04-15T16:49:06;11.77;;;8.17;;
29776;SDS011;16677;52.224;7.484;2023-04-15T16:51:33;12.63;;;7.83;;
29776;SDS011;16677;52.224;7.484;2023-04-15T16:54:00;13.00;;;7.80;;
29776;SDS011;16677;52.224;7.484;2023-04-15T16:56:27;13.23;;;9.00;;
29776;SDS011;16677;52.224;7.484;2023-04-15T16:58:54;17.20;;;9.50;;
29776;SDS011;16677;52.224;7.484;2023-04-15T17:01:21;15.03;;;9.80;;
29776;SDS011;16677;52.224;7.484;2023-04-15T17:03:48;17.93;;;9.83;;
29776;SDS011;16677;52.224;7.484;2023-04-15T17:06:21;13.93;;;9.50;;
29776;SDS011;16677;52.224;7.484;2023-04-15T17:08:48;13.83;;;10.37;;
29776;SDS011;16677;52.224;7.484;2023-04-15T17:11:15;16.40;;;10.60;;
29776;SDS011;16677;52.224;7.484;2023-04-15T17:13:42;15.23;;;9.53;;
29776;SDS011;16677;52.224;7.484;2023-04-15T17:16:10;15.47;;;9.77;;
29776;SDS011;16677;52.224;7.484;2023-04-15T17:18:37;22.13;;;11.17;;
29776;SDS011;16677;52.224;7.484;2023-04-15T17:23:37;17.13;;;10.80;;
29776;SDS011;16677;52.224;7.484;2023-04-15T17:30:19;18.73;;;11.90;;
29776;SDS011;16677;52.224;7.484;2023-04-15T17:33:04;17.87;;;12.50;;
29776;SDS011;16677;52.224;7.484;2023-04-15T17:35:52;19.27;;;12.77;;
29776;SDS011;16677;52.224;7.484;2023-04-15T17:38:19;22.63;;;12.93;;
29776;SDS011;16677;52.224;7.484;2023-04-15T17:40:46;18.80;;;13.03;;
29776;SDS011;16677;52.224;7.484;2023-04-15T17:43:13;20.17;;;13.00;;
29776;SDS011;16677;52.224;7.484;2023-04-15T17:45:40;27.23;;;17.27;;
29776;SDS011;16677;52.224;7.484;2023-04-15T17:48:08;20.90;;;14.30;;
29776;SDS011;16677;52.224;7.484;2023-04-15T17:50:36;21.10;;;13.63;;
29776;SDS011;16677;52.224;7.484;2023-04-15T17:53:04;22.50;;;14.27;;
29776;SDS011;16677;52.224;7.484;2023-04-15T17:55:31;20.67;;;14.13;;
29776;SDS011;16677;52.224;7.484;2023-04-15T17:57:59;23.80;;;15.00;;
29776;SDS011;16677;52.224;7.484;2023-04-15T18:00:26;23.97;;;15.23;;
29776;SDS011;16677;52.224;7.484;2023-04-15T18:02:53;23.73;;;14.43;;
29776;SDS011;16677;52.224;7.484;2023-04-15T18:05:20;26.70;;;15.27;;
29776;SDS011;16677;52.224;7.484;2023-04-15T18:07:49;24.13;;;15.77;;
29776;SDS011;16677;52.224;7.484;2023-04-15T18:10:18;24.20;;;16.37;;
29776;SDS011;16677;52.224;7.484;2023-04-15T18:12:46;27.77;;;15.87;;
29776;SDS011;16677;52.224;7.484;2023-04-15T18:15:13;26.03;;;15.53;;
29776;SDS011;16677;52.224;7.484;2023-04-15T18:17:41;28.83;;;16.83;;
29776;SDS011;16677;52.224;7.484;2023-04-15T18:20:08;30.43;;;18.30;;
29776;SDS011;16677;52.224;7.484;2023-04-15T18:22:36;30.00;;;17.33;;
29776;SDS011;16677;52.224;7.484;2023-04-15T18:25:03;32.17;;;17.73;;
29776;SDS011;16677;52.224;7.484;2023-04-15T18:27:32;28.33;;;17.30;;
29776;SDS011;16677;52.224;7.484;2023-04-15T18:29:59;29.47;;;16.93;;
29776;SDS011;16677;52.224;7.484;2023-04-15T18:32:27;28.73;;;15.87;;
29776;SDS011;16677;52.224;7.484;2023-04-15T18:34:57;31.37;;;19.00;;
29776;SDS011;16677;52.224;7.484;2023-04-15T18:37:25;30.77;;;20.43;;
29776;SDS011;16677;52.224;7.484;2023-04-15T18:39:54;30.63;;;20.53;;
29776;SDS011;16677;52.224;7.484;2023-04-15T18:42:22;32.33;;;20.37;;
29776;SDS011;16677;52.224;7.484;2023-04-15T18:44:50;30.37;;;19.67;;
29776;SDS011;16677;52.224;7.484;2023-04-15T18:47:18;35.90;;;20.50;;
29776;SDS011;16677;52.224;7.484;2023-04-15T18:49:46;35.93;;;21.00;;
29776;SDS011;16677;52.224;7.484;2023-04-15T18:52:13;38.20;;;24.30;;
29776;SDS011;16677;52.224;7.484;2023-04-15T18:54:40;37.03;;;22.00;;
29776;SDS011;16677;52.224;7.484;2023-04-15T18:57:07;34.30;;;22.07;;
29776;SDS011;16677;52.224;7.484;2023-04-15T18:59:34;35.67;;;23.53;;
29776;SDS011;16677;52.224;7.484;2023-04-15T19:02:02;40.83;;;24.47;;
29776;SDS011;16677;52.224;7.484;2023-04-15T19:04:32;38.67;;;23.30;;
29776;SDS011;16677;52.224;7.484;2023-04-15T19:07:00;39.80;;;25.23;;
29776;SDS011;16677;52.224;7.484;2023-04-15T19:09:29;42.90;;;25.20;;
29776;SDS011;16677;52.224;7.484;2023-04-15T19:11:56;42.00;;;24.07;;
29776;SDS011;16677;52.224;7.484;2023-04-15T19:14:23;44.13;;;24.87;;
29776;SDS011;16677;52.224;7.484;2023-04-15T19:16:51;37.43;;;23.97;;
29776;SDS011;16677;52.224;7.484;2023-04-15T19:19:18;41.67;;;24.87;;
29776;SDS011;16677;52.224;7.484;2023-04-15T19:21:46;41.40;;;24.33;;
29776;SDS011;16677;52.224;7.484;2023-04-15T19:24:15;42.97;;;25.00;;
29776;SDS011;16677;52.224;7.484;2023-04-15T19:26:45;46.43;;;25.17;;
29776;SDS011;16677;52.224;7.484;2023-04-15T19:29:15;39.77;;;24.17;;
29776;SDS011;16677;52.224;7.484;2023-04-15T19:31:43;39.47;;;23.93;;
29776;SDS011;16677;52.224;7.484;2023-04-15T19:34:10;37.93;;;25.07;;
29776;SDS011;16677;52.224;7.484;2023-04-15T19:36:38;38.97;;;25.50;;
29776;SDS011;16677;52.224;7.484;2023-04-15T19:39:05;36.73;;;24.87;;
29776;SDS011;16677;52.224;7.484;2023-04-15T19:41:33;37.53;;;24.77;;
29776;SDS011;16677;52.224;7.484;2023-04-15T19:44:00;42.03;;;25.03;;
29776;SDS011;16677;52.224;7.484;2023-04-15T19:46:29;38.70;;;24.97;;
29776;SDS011;16677;52.224;7.484;2023-04-15T19:48:57;39.57;;;25.13;;
29776;SDS011;16677;52.224;7.484;2023-04-15T19:51:25;36.50;;;24.47;;
29776;SDS011;16677;52.224;7.484;2023-04-15T19:53:53;45.80;;;26.63;;
29776;SDS011;16677;52.224;7.484;2023-04-15T19:56:24;46.83;;;26.83;;
29776;SDS011;16677;52.224;7.484;2023-04-15T19:58:53;44.93;;;25.47;;
29776;SDS011;16677;52.224;7.484;2023-04-15T20:01:20;39.83;;;25.83;;
29776;SDS011;16677;52.224;7.484;2023-04-15T20:03:48;42.70;;;26.73;;
29776;SDS011;16677;52.224;7.484;2023-04-15T20:06:18;47.53;;;27.00;;
29776;SDS011;16677;52.224;7.484;2023-04-15T20:08:46;41.20;;;26.17;;
29776;SDS011;16677;52.224;7.484;2023-04-15T20:11:13;45.13;;;28.07;;
29776;SDS011;16677;52.224;7.484;2023-04-15T20:13:41;47.83;;;28.77;;
29776;SDS011;16677;52.224;7.484;2023-04-15T20:16:08;44.57;;;27.10;;
29776;SDS011;16677;52.224;7.484;2023-04-15T20:18:36;47.80;;;29.03;;
29776;SDS011;16677;52.224;7.484;2023-04-15T20:21:04;45.23;;;29.50;;
29776;SDS011;16677;52.224;7.484;2023-04-15T20:23:31;49.20;;;30.00;;
29776;SDS011;16677;52.224;7.484;2023-04-15T20:26:00;52.63;;;30.47;;
29776;SDS011;16677;52.224;7.484;2023-04-15T20:28:27;50.67;;;31.27;;
29776;SDS011;16677;52.224;7.484;2023-04-15T20:30:54;53.77;;;30.83;;
29776;SDS011;16677;52.224;7.484;2023-04-15T20:33:21;56.93;;;32.37;;
29776;SDS011;16677;52.224;7.484;2023-04-15T20:35:50;54.43;;;32.17;;
29776;SDS011;16677;52.224;7.484;2023-04-15T20:38:19;53.30;;;31.83;;
29776;SDS011;16677;52.224;7.484;2023-04-15T20:40:47;61.33;;;32.63;;
29776;SDS011;16677;52.224;7.484;2023-04-15T20:43:14;52.23;;;31.40;;
29776;SDS011;16677;52.224;7.484;2023-04-15T20:45:42;54.67;;;31.30;;
29776;SDS011;16677;52.224;7.484;2023-04-15T20:48:09;63.97;;;33.60;;
29776;SDS011;16677;52.224;7.484;2023-04-15T20:50:37;60.83;;;32.23;;
29776;SDS011;16677;52.224;7.484;2023-04-15T20:53:04;60.17;;;33.77;;
29776;SDS011;16677;52.224;7.484;2023-04-15T20:55:32;63.83;;;32.53;;
29776;SDS011;16677;52.224;7.484;2023-04-15T20:57:59;60.07;;;35.10;;
29776;SDS011;16677;52.224;7.484;2023-04-15T21:00:27;66.17;;;33.43;;
29776;SDS011;16677;52.224;7.484;2023-04-15T21:02:54;59.47;;;33.47;;
29776;SDS011;16677;52.224;7.484;2023-04-15T21:05:22;65.47;;;35.23;;
29776;SDS011;16677;52.224;7.484;2023-04-15T21:07:49;64.27;;;35.60;;
29776;SDS011;16677;52.224;7.484;2023-04-15T21:10:16;70.30;;;35.87;;
29776;SDS011;16677;52.224;7.484;2023-04-15T21:12:43;66.97;;;35.73;;
29776;SDS011;16677;52.224;7.484;2023-04-15T21:15:11;67.40;;;36.87;;
29776;SDS011;16677;52.224;7.484;2023-04-15T21:17:38;72.93;;;36.77;;
29776;SDS011;16677;52.224;7.484;2023-04-15T21:20:06;69.10;;;36.83;;
29776;SDS011;16677;52.224;7.484;2023-04-15T21:22:34;63.33;;;35.73;;
29776;SDS011;16677;52.224;7.484;2023-04-15T21:25:01;66.83;;;37.97;;
29776;SDS011;16677;52.224;7.484;2023-04-15T21:27:29;70.23;;;37.13;;
29776;SDS011;16677;52.224;7.484;2023-04-15T21:29:57;62.53;;;37.93;;
29776;SDS011;16677;52.224;7.484;2023-04-15T21:32:24;67.37;;;37.43;;
29776;SDS011;16677;52.224;7.484;2023-04-15T21:34:51;66.93;;;37.70;;
29776;SDS011;16677;52.224;7.484;2023-04-15T21:37:18;72.67;;;38.73;;
29776;SDS011;16677;52.224;7.484;2023-04-15T21:39:46;72.73;;;39.47;;
29776;SDS011;16677;52.224;7.484;2023-04-15T21:42:13;71.03;;;38.63;;
29776;SDS011;16677;52.224;7.484;2023-04-15T21:44:40;73.13;;;39.00;;
29776;SDS011;16677;52.224;7.484;2023-04-15T21:47:07;72.17;;;39.27;;
29776;SDS011;16677;52.224;7.484;2023-04-15T21:49:35;66.77;;;38.93;;
29776;SDS011;16677;52.224;7.484;2023-04-15T21:52:02;68.73;;;39.13;;
29776;SDS011;16677;52.224;7.484;2023-04-15T21:54:29;68.40;;;39.33;;
29776;SDS011;16677;52.224;7.484;2023-04-15T21:56:58;72.93;;;38.97;;
29776;SDS011;16677;52.224;7.484;2023-04-15T21:59:26;75.73;;;40.23;;
29776;SDS011;16677;52.224;7.484;2023-04-15T22:01:54;68.60;;;39.93;;
29776;SDS011;16677;52.224;7.484;2023-04-15T22:04:21;66.67;;;39.83;;
29776;SDS011;16677;52.224;7.484;2023-04-15T22:06:48;65.20;;;38.10;;
29776;SDS011;16677;52.224;7.484;2023-04-15T22:09:17;71.63;;;40.07;;
29776;SDS011;16677;52.224;7.484;2023-04-15T22:11:44;75.30;;;39.63;;
29776;SDS011;16677;52.224;7.484;2023-04-15T22:14:12;74.60;;;40.70;;
29776;SDS011;16677;52.224;7.484;2023-04-15T22:16:40;76.03;;;40.40;;
29776;SDS011;16677;52.224;7.484;2023-04-15T22:19:07;73.80;;;39.00;;
29776;SDS011;16677;52.224;7.484;2023-04-15T22:21:35;78.90;;;40.90;;
29776;SDS011;16677;52.224;7.484;2023-04-15T22:24:02;76.50;;;41.17;;
29776;SDS011;16677;52.224;7.484;2023-04-15T22:26:49;69.93;;;38.20;;
29776;SDS011;16677;52.224;7.484;2023-04-15T22:29:16;76.97;;;40.73;;
29776;SDS011;16677;52.224;7.484;2023-04-15T22:31:43;81.10;;;41.83;;
29776;SDS011;16677;52.224;7.484;2023-04-15T22:34:11;82.32;;;49.28;;
29776;SDS011;16677;52.224;7.484;2023-04-15T22:36:46;79.73;;;43.20;;
29776;SDS011;16677;52.224;7.484;2023-04-15T22:39:14;79.77;;;41.00;;
29776;SDS011;16677;52.224;7.484;2023-04-15T22:41:42;82.07;;;43.53;;
29776;SDS011;16677;52.224;7.484;2023-04-15T22:44:10;76.67;;;39.53;;
29776;SDS011;16677;52.224;7.484;2023-04-15T22:46:37;73.57;;;42.03;;
29776;SDS011;16677;52.224;7.484;2023-04-15T22:49:06;80.23;;;41.37;;
29776;SDS011;16677;52.224;7.484;2023-04-15T22:51:34;89.43;;;43.20;;
29776;SDS011;16677;52.224;7.484;2023-04-15T22:54:03;80.33;;;41.63;;
29776;SDS011;16677;52.224;7.484;2023-04-15T22:56:31;85.30;;;42.03;;
29776;SDS011;16677;52.224;7.484;2023-04-15T22:58:58;89.80;;;42.17;;
29776;SDS011;16677;52.224;7.484;2023-04-15T23:01:25;83.17;;;43.97;;
29776;SDS011;16677;52.224;7.484;2023-04-15T23:03:52;80.53;;;44.13;;
29776;SDS011;16677;52.224;7.484;2023-04-15T23:06:29;79.60;;;44.30;;
29776;SDS011;16677;52.224;7.484;2023-04-15T23:08:56;89.17;;;42.67;;
29776;SDS011;16677;52.224;7.484;2023-04-15T23:11:23;81.97;;;42.87;;
29776;SDS011;16677;52.224;7.484;2023-04-15T23:13:50;87.10;;;42.57;;
29776;SDS011;16677;52.224;7.484;2023-04-15T23:16:18;85.97;;;44.40;;
29776;SDS011;16677;52.224;7.484;2023-04-15T23:18:45;80.97;;;42.10;;
29776;SDS011;16677;52.224;7.484;2023-04-15T23:23:40;82.50;;;42.13;;
29776;SDS011;16677;52.224;7.484;2023-04-15T23:26:07;85.20;;;42.57;;
29776;SDS011;16677;52.224;7.484;2023-04-15T23:28:34;74.40;;;40.97;;
29776;SDS011;16677;52.224;7.484;2023-04-15T23:31:01;74.67;;;41.03;;
29776;SDS011;16677;52.224;7.484;2023-04-15T23:33:28;79.87;;;41.20;;
29776;SDS011;16677;52.224;7.484;2023-04-15T23:35:57;84.67;;;42.60;;
29776;SDS011;16677;52.224;7.484;2023-04-15T23:38:24;84.93;;;42.10;;
29776;SDS011;16677;52.224;7.484;2023-04-15T23:40:51;77.67;;;41.57;;
29776;SDS011;16677;52.224;7.484;2023-04-15T23:43:18;79.00;;;41.80;;
29776;SDS011;16677;52.224;7.484;2023-04-15T23:45:45;77.40;;;43.10;;
29776;SDS011;16677;52.224;7.484;2023-04-15T23:48:13;80.57;;;43.00;;
29776;SDS011;16677;52.224;7.484;2023-04-15T23:50:40;86.73;;;42.43;;
29776;SDS011;16677;52.224;7.484;2023-04-15T23:53:07;77.37;;;41.73;;
29776;SDS011;16677;52.224;7.484;2023-04-15T23:55:34;72.47;;;40.87;;
29776;SDS011;16677;52.224;7.484;2023-04-15T23:58:01;79.50;;;40.83;;
